sensor_id;sensor_type;location;lat;lon;timestamp;P1;durP1;ratioP1;P2;durP2;ratioP2
32864;SDS011;19219;44.500;11.188;2023-04-08T00:00:23;49.28;;;29.33;;
32864;SDS011;19219;44.500;11.188;2023-04-08T00:02:49;49.65;;;30.95;;
32864;SDS011;19219;44.500;11.188;2023-04-08T00:05:15;56.55;;;31.52;;
32864;SDS011;19219;44.500;11.188;2023-04-08T00:07:40;53.20;;;30.10;;
32864;SDS011;19219;44.500;11.188;2023-04-08T00:10:06;52.90;;;30.10;;
32864;SDS011;19219;44.500;11.188;2023-04-08T00:12:32;52.55;;;29.63;;
32864;SDS011;19219;44.500;11.188;2023-04-08T00:14:58;50.05;;;30.60;;
32864;SDS011;19219;44.500;11.188;2023-04-08T00:17:24;52.10;;;30.30;;
32864;SDS011;19219;44.500;11.188;2023-04-08T00:19:50;53.13;;;32.35;;
32864;SDS011;19219;44.500;11.188;2023-04-08T00:22:16;54.83;;;31.55;;
32864;SDS011;19219;44.500;11.188;2023-04-08T00:24:42;51.20;;;30.42;;
32864;SDS011;19219;44.500;11.188;2023-04-08T00:27:08;50.15;;;29.48;;
32864;SDS011;19219;44.500;11.188;2023-04-08T00:29:34;52.67;;;29.35;;
32864;SDS011;19219;44.500;11.188;2023-04-08T00:32:00;51.67;;;29.27;;
32864;SDS011;19219;44.500;11.188;2023-04-08T00:34:25;51.67;;;29.85;;
32864;SDS011;19219;44.500;11.188;2023-04-08T00:36:51;53.67;;;30.88;;
32864;SDS011;19219;44.500;11.188;2023-04-08T00:39:17;57.70;;;31.25;;
32864;SDS011;19219;44.500;11.188;2023-04-08T00:41:42;55.70;;;31.33;;
32864;SDS011;19219;44.500;11.188;2023-04-08T00:44:08;58.75;;;33.30;;
32864;SDS011;19219;44.500;11.188;2023-04-08T00:46:35;56.92;;;32.75;;
32864;SDS011;19219;44.500;11.188;2023-04-08T00:49:03;57.40;;;31.55;;
32864;SDS011;19219;44.500;11.188;2023-04-08T00:51:29;56.15;;;33.97;;
32864;SDS011;19219;44.500;11.188;2023-04-08T00:53:56;56.00;;;32.47;;
32864;SDS011;19219;44.500;11.188;2023-04-08T00:56:22;63.05;;;33.50;;
32864;SDS011;19219;44.500;11.188;2023-04-08T00:58:48;58.10;;;31.83;;
32864;SDS011;19219;44.500;11.188;2023-04-08T01:01:21;59.75;;;33.35;;
32864;SDS011;19219;44.500;11.188;2023-04-08T01:04:13;60.38;;;34.05;;
32864;SDS011;19219;44.500;11.188;2023-04-08T01:09:49;57.50;;;33.22;;
32864;SDS011;19219;44.500;11.188;2023-04-08T01:12:25;51.45;;;31.05;;
32864;SDS011;19219;44.500;11.188;2023-04-08T01:15:00;55.20;;;32.33;;
32864;SDS011;19219;44.500;11.188;2023-04-08T01:17:29;56.83;;;33.60;;
32864;SDS011;19219;44.500;11.188;2023-04-08T01:19:56;55.60;;;33.65;;
32864;SDS011;19219;44.500;11.188;2023-04-08T01:25:09;56.22;;;33.17;;
32864;SDS011;19219;44.500;11.188;2023-04-08T01:27:40;56.72;;;34.42;;
32864;SDS011;19219;44.500;11.188;2023-04-08T01:30:07;60.13;;;32.72;;
32864;SDS011;19219;44.500;11.188;2023-04-08T01:32:34;55.17;;;31.55;;
32864;SDS011;19219;44.500;11.188;2023-04-08T01:35:01;60.78;;;35.30;;
32864;SDS011;19219;44.500;11.188;2023-04-08T01:37:28;60.65;;;33.47;;
32864;SDS011;19219;44.500;11.188;2023-04-08T01:39:55;60.10;;;33.70;;
32864;SDS011;19219;44.500;11.188;2023-04-08T01:42:23;55.47;;;33.72;;
32864;SDS011;19219;44.500;11.188;2023-04-08T01:44:51;57.22;;;32.75;;
32864;SDS011;19219;44.500;11.188;2023-04-08T01:47:19;58.78;;;34.92;;
32864;SDS011;19219;44.500;11.188;2023-04-08T01:49:45;56.97;;;33.80;;
32864;SDS011;19219;44.500;11.188;2023-04-08T01:52:11;59.47;;;34.17;;
32864;SDS011;19219;44.500;11.188;2023-04-08T01:54:38;54.88;;;31.70;;
32864;SDS011;19219;44.500;11.188;2023-04-08T01:57:04;58.08;;;34.03;;
32864;SDS011;19219;44.500;11.188;2023-04-08T01:59:34;53.38;;;31.95;;
32864;SDS011;19219;44.500;11.188;2023-04-08T02:02:01;56.92;;;33.08;;
32864;SDS011;19219;44.500;11.188;2023-04-08T02:04:30;54.87;;;31.80;;
32864;SDS011;19219;44.500;11.188;2023-04-08T02:07:00;65.30;;;33.10;;
32864;SDS011;19219;44.500;11.188;2023-04-08T02:09:26;50.83;;;31.83;;
32864;SDS011;19219;44.500;11.188;2023-04-08T02:11:52;55.30;;;31.98;;
32864;SDS011;19219;44.500;11.188;2023-04-08T02:14:18;54.63;;;30.80;;
32864;SDS011;19219;44.500;11.188;2023-04-08T02:16:54;52.08;;;29.98;;
32864;SDS011;19219;44.500;11.188;2023-04-08T02:19:40;52.17;;;29.48;;
32864;SDS011;19219;44.500;11.188;2023-04-08T02:22:22;65.90;;;34.40;;
32864;SDS011;19219;44.500;11.188;2023-04-08T02:25:02;54.65;;;31.42;;
32864;SDS011;19219;44.500;11.188;2023-04-08T02:27:33;54.42;;;30.38;;
32864;SDS011;19219;44.500;11.188;2023-04-08T02:29:59;53.92;;;31.25;;
32864;SDS011;19219;44.500;11.188;2023-04-08T02:32:29;54.20;;;30.83;;
32864;SDS011;19219;44.500;11.188;2023-04-08T02:34:58;56.80;;;30.27;;
32864;SDS011;19219;44.500;11.188;2023-04-08T02:37:29;50.05;;;29.20;;
32864;SDS011;19219;44.500;11.188;2023-04-08T02:39:58;51.47;;;31.08;;
32864;SDS011;19219;44.500;11.188;2023-04-08T02:42:24;55.05;;;30.80;;
32864;SDS011;19219;44.500;11.188;2023-04-08T02:44:50;52.63;;;30.02;;
32864;SDS011;19219;44.500;11.188;2023-04-08T02:47:16;51.05;;;29.90;;
32864;SDS011;19219;44.500;11.188;2023-04-08T02:49:41;52.00;;;28.58;;
32864;SDS011;19219;44.500;11.188;2023-04-08T02:52:07;47.65;;;30.42;;
32864;SDS011;19219;44.500;11.188;2023-04-08T02:54:33;55.17;;;30.45;;
32864;SDS011;19219;44.500;11.188;2023-04-08T02:56:58;53.72;;;31.98;;
32864;SDS011;19219;44.500;11.188;2023-04-08T02:59:24;52.45;;;29.45;;
32864;SDS011;19219;44.500;11.188;2023-04-08T03:01:50;50.40;;;30.98;;
32864;SDS011;19219;44.500;11.188;2023-04-08T03:04:15;53.33;;;29.50;;
32864;SDS011;19219;44.500;11.188;2023-04-08T03:06:41;56.13;;;30.40;;
32864;SDS011;19219;44.500;11.188;2023-04-08T03:09:07;57.25;;;31.40;;
32864;SDS011;19219;44.500;11.188;2023-04-08T03:11:32;51.90;;;28.42;;
32864;SDS011;19219;44.500;11.188;2023-04-08T03:13:58;57.35;;;30.10;;
32864;SDS011;19219;44.500;11.188;2023-04-08T03:16:24;48.28;;;28.95;;
32864;SDS011;19219;44.500;11.188;2023-04-08T03:18:50;50.33;;;29.42;;
32864;SDS011;19219;44.500;11.188;2023-04-08T03:21:16;50.63;;;29.98;;
32864;SDS011;19219;44.500;11.188;2023-04-08T03:23:42;50.25;;;29.20;;
32864;SDS011;19219;44.500;11.188;2023-04-08T03:26:08;57.80;;;30.40;;
32864;SDS011;19219;44.500;11.188;2023-04-08T03:28:33;55.50;;;30.02;;
32864;SDS011;19219;44.500;11.188;2023-04-08T03:30:59;50.75;;;30.73;;
32864;SDS011;19219;44.500;11.188;2023-04-08T03:33:26;60.33;;;33.65;;
32864;SDS011;19219;44.500;11.188;2023-04-08T03:35:52;55.45;;;31.42;;
32864;SDS011;19219;44.500;11.188;2023-04-08T03:38:18;56.42;;;31.15;;
32864;SDS011;19219;44.500;11.188;2023-04-08T03:40:44;56.42;;;31.85;;
32864;SDS011;19219;44.500;11.188;2023-04-08T03:43:09;59.70;;;32.45;;
32864;SDS011;19219;44.500;11.188;2023-04-08T03:45:36;57.22;;;32.00;;
32864;SDS011;19219;44.500;11.188;2023-04-08T03:48:02;58.10;;;31.75;;
32864;SDS011;19219;44.500;11.188;2023-04-08T03:50:28;58.05;;;31.38;;
32864;SDS011;19219;44.500;11.188;2023-04-08T03:52:53;55.35;;;32.08;;
32864;SDS011;19219;44.500;11.188;2023-04-08T03:55:19;53.20;;;29.08;;
32864;SDS011;19219;44.500;11.188;2023-04-08T03:57:45;53.45;;;29.85;;
32864;SDS011;19219;44.500;11.188;2023-04-08T04:00:10;48.40;;;28.88;;
32864;SDS011;19219;44.500;11.188;2023-04-08T04:02:36;60.33;;;30.58;;
32864;SDS011;19219;44.500;11.188;2023-04-08T04:05:02;53.72;;;29.95;;
32864;SDS011;19219;44.500;11.188;2023-04-08T04:07:28;53.28;;;31.83;;
32864;SDS011;19219;44.500;11.188;2023-04-08T04:09:54;61.45;;;30.38;;
32864;SDS011;19219;44.500;11.188;2023-04-08T04:12:21;50.83;;;30.25;;
32864;SDS011;19219;44.500;11.188;2023-04-08T04:14:50;52.42;;;30.10;;
32864;SDS011;19219;44.500;11.188;2023-04-08T04:17:16;56.53;;;30.58;;
32864;SDS011;19219;44.500;11.188;2023-04-08T04:19:42;52.40;;;30.88;;
32864;SDS011;19219;44.500;11.188;2023-04-08T04:22:07;61.90;;;31.23;;
32864;SDS011;19219;44.500;11.188;2023-04-08T04:24:33;58.15;;;30.38;;
32864;SDS011;19219;44.500;11.188;2023-04-08T04:26:59;60.22;;;33.78;;
32864;SDS011;19219;44.500;11.188;2023-04-08T04:29:24;56.75;;;33.50;;
32864;SDS011;19219;44.500;11.188;2023-04-08T04:31:50;55.15;;;31.27;;
32864;SDS011;19219;44.500;11.188;2023-04-08T04:34:15;53.65;;;30.88;;
32864;SDS011;19219;44.500;11.188;2023-04-08T04:36:41;68.07;;;37.83;;
32864;SDS011;19219;44.500;11.188;2023-04-08T04:39:07;65.15;;;35.05;;
32864;SDS011;19219;44.500;11.188;2023-04-08T04:41:33;59.40;;;33.65;;
32864;SDS011;19219;44.500;11.188;2023-04-08T04:44:02;59.22;;;31.35;;
32864;SDS011;19219;44.500;11.188;2023-04-08T04:46:28;54.67;;;33.13;;
32864;SDS011;19219;44.500;11.188;2023-04-08T04:48:54;60.25;;;33.53;;
32864;SDS011;19219;44.500;11.188;2023-04-08T04:51:20;50.38;;;32.15;;
32864;SDS011;19219;44.500;11.188;2023-04-08T04:53:46;55.30;;;31.90;;
32864;SDS011;19219;44.500;11.188;2023-04-08T04:56:13;64.95;;;33.47;;
32864;SDS011;19219;44.500;11.188;2023-04-08T04:58:38;53.80;;;30.70;;
32864;SDS011;19219;44.500;11.188;2023-04-08T05:01:04;57.03;;;32.33;;
32864;SDS011;19219;44.500;11.188;2023-04-08T05:03:30;59.15;;;33.85;;
32864;SDS011;19219;44.500;11.188;2023-04-08T05:05:56;53.20;;;30.98;;
32864;SDS011;19219;44.500;11.188;2023-04-08T05:08:21;59.65;;;34.45;;
32864;SDS011;19219;44.500;11.188;2023-04-08T05:10:47;63.67;;;34.65;;
32864;SDS011;19219;44.500;11.188;2023-04-08T05:13:14;56.95;;;33.58;;
32864;SDS011;19219;44.500;11.188;2023-04-08T05:15:41;59.35;;;33.17;;
32864;SDS011;19219;44.500;11.188;2023-04-08T05:18:07;51.50;;;30.42;;
32864;SDS011;19219;44.500;11.188;2023-04-08T05:20:33;50.50;;;29.35;;
32864;SDS011;19219;44.500;11.188;2023-04-08T05:22:58;59.20;;;30.65;;
32864;SDS011;19219;44.500;11.188;2023-04-08T05:25:24;53.35;;;31.33;;
32864;SDS011;19219;44.500;11.188;2023-04-08T05:27:50;55.10;;;30.60;;
32864;SDS011;19219;44.500;11.188;2023-04-08T05:30:16;60.10;;;31.83;;
32864;SDS011;19219;44.500;11.188;2023-04-08T05:32:42;54.63;;;31.23;;
32864;SDS011;19219;44.500;11.188;2023-04-08T05:35:08;58.30;;;32.33;;
32864;SDS011;19219;44.500;11.188;2023-04-08T05:37:34;51.20;;;29.98;;
32864;SDS011;19219;44.500;11.188;2023-04-08T05:40:00;54.95;;;30.27;;
32864;SDS011;19219;44.500;11.188;2023-04-08T05:42:25;54.22;;;30.48;;
32864;SDS011;19219;44.500;11.188;2023-04-08T05:44:51;50.90;;;27.88;;
32864;SDS011;19219;44.500;11.188;2023-04-08T05:47:17;51.97;;;28.45;;
32864;SDS011;19219;44.500;11.188;2023-04-08T05:49:43;53.33;;;30.52;;
32864;SDS011;19219;44.500;11.188;2023-04-08T05:52:08;59.80;;;32.70;;
32864;SDS011;19219;44.500;11.188;2023-04-08T05:54:34;53.55;;;31.65;;
32864;SDS011;19219;44.500;11.188;2023-04-08T05:57:00;53.63;;;31.65;;
32864;SDS011;19219;44.500;11.188;2023-04-08T05:59:25;65.40;;;34.78;;
32864;SDS011;19219;44.500;11.188;2023-04-08T06:01:51;61.00;;;32.92;;
32864;SDS011;19219;44.500;11.188;2023-04-08T06:04:18;58.55;;;33.47;;
32864;SDS011;19219;44.500;11.188;2023-04-08T06:06:44;56.28;;;34.80;;
32864;SDS011;19219;44.500;11.188;2023-04-08T06:09:09;60.33;;;35.35;;
32864;SDS011;19219;44.500;11.188;2023-04-08T06:11:35;58.33;;;33.20;;
32864;SDS011;19219;44.500;11.188;2023-04-08T06:14:01;56.22;;;33.85;;
32864;SDS011;19219;44.500;11.188;2023-04-08T06:16:26;56.17;;;33.25;;
32864;SDS011;19219;44.500;11.188;2023-04-08T06:18:52;54.97;;;32.72;;
32864;SDS011;19219;44.500;11.188;2023-04-08T06:21:18;51.25;;;31.73;;
32864;SDS011;19219;44.500;11.188;2023-04-08T06:23:43;64.13;;;33.38;;
32864;SDS011;19219;44.500;11.188;2023-04-08T06:26:09;50.65;;;31.13;;
32864;SDS011;19219;44.500;11.188;2023-04-08T06:28:35;54.88;;;31.60;;
32864;SDS011;19219;44.500;11.188;2023-04-08T06:31:00;54.30;;;33.35;;
32864;SDS011;19219;44.500;11.188;2023-04-08T06:33:26;55.30;;;31.58;;
32864;SDS011;19219;44.500;11.188;2023-04-08T06:36:00;54.47;;;32.42;;
32864;SDS011;19219;44.500;11.188;2023-04-08T06:38:29;46.80;;;29.95;;
32864;SDS011;19219;44.500;11.188;2023-04-08T06:40:55;53.65;;;31.55;;
32864;SDS011;19219;44.500;11.188;2023-04-08T06:43:26;52.30;;;31.85;;
32864;SDS011;19219;44.500;11.188;2023-04-08T06:45:51;49.97;;;31.45;;
32864;SDS011;19219;44.500;11.188;2023-04-08T06:48:17;54.67;;;31.65;;
32864;SDS011;19219;44.500;11.188;2023-04-08T06:50:43;56.28;;;33.65;;
32864;SDS011;19219;44.500;11.188;2023-04-08T06:53:08;62.38;;;34.58;;
32864;SDS011;19219;44.500;11.188;2023-04-08T06:55:34;53.85;;;32.65;;
32864;SDS011;19219;44.500;11.188;2023-04-08T06:57:59;54.58;;;31.70;;
32864;SDS011;19219;44.500;11.188;2023-04-08T07:00:26;63.83;;;36.08;;
32864;SDS011;19219;44.500;11.188;2023-04-08T07:02:52;53.45;;;31.88;;
32864;SDS011;19219;44.500;11.188;2023-04-08T07:05:17;57.33;;;32.97;;
32864;SDS011;19219;44.500;11.188;2023-04-08T07:07:43;47.17;;;27.60;;
32864;SDS011;19219;44.500;11.188;2023-04-08T07:10:09;47.25;;;28.08;;
32864;SDS011;19219;44.500;11.188;2023-04-08T07:12:34;49.05;;;30.95;;
32864;SDS011;19219;44.500;11.188;2023-04-08T07:15:00;43.75;;;27.38;;
32864;SDS011;19219;44.500;11.188;2023-04-08T07:17:26;42.45;;;27.85;;
32864;SDS011;19219;44.500;11.188;2023-04-08T07:19:52;49.00;;;29.23;;
32864;SDS011;19219;44.500;11.188;2023-04-08T07:22:17;45.38;;;28.23;;
32864;SDS011;19219;44.500;11.188;2023-04-08T07:24:43;47.58;;;28.70;;
32864;SDS011;19219;44.500;11.188;2023-04-08T07:27:13;43.55;;;26.42;;
32864;SDS011;19219;44.500;11.188;2023-04-08T07:29:42;39.80;;;26.05;;
32864;SDS011;19219;44.500;11.188;2023-04-08T07:32:07;43.72;;;27.05;;
32864;SDS011;19219;44.500;11.188;2023-04-08T07:34:36;43.47;;;28.25;;
32864;SDS011;19219;44.500;11.188;2023-04-08T07:37:01;51.60;;;28.15;;
32864;SDS011;19219;44.500;11.188;2023-04-08T07:39:27;49.10;;;29.42;;
32864;SDS011;19219;44.500;11.188;2023-04-08T07:41:53;44.83;;;27.50;;
32864;SDS011;19219;44.500;11.188;2023-04-08T07:44:18;49.10;;;31.20;;
32864;SDS011;19219;44.500;11.188;2023-04-08T07:46:44;49.70;;;28.83;;
32864;SDS011;19219;44.500;11.188;2023-04-08T07:49:13;50.53;;;29.20;;
32864;SDS011;19219;44.500;11.188;2023-04-08T07:51:38;49.08;;;29.15;;
32864;SDS011;19219;44.500;11.188;2023-04-08T07:54:04;49.58;;;29.92;;
32864;SDS011;19219;44.500;11.188;2023-04-08T07:56:30;47.03;;;29.00;;
32864;SDS011;19219;44.500;11.188;2023-04-08T07:58:55;41.60;;;26.52;;
32864;SDS011;19219;44.500;11.188;2023-04-08T08:01:21;37.38;;;25.67;;
32864;SDS011;19219;44.500;11.188;2023-04-08T08:03:48;38.53;;;26.48;;
32864;SDS011;19219;44.500;11.188;2023-04-08T08:06:15;42.20;;;27.55;;
32864;SDS011;19219;44.500;11.188;2023-04-08T08:08:40;37.80;;;25.13;;
32864;SDS011;19219;44.500;11.188;2023-04-08T08:11:06;40.22;;;25.13;;
32864;SDS011;19219;44.500;11.188;2023-04-08T08:13:32;33.85;;;23.58;;
32864;SDS011;19219;44.500;11.188;2023-04-08T08:15:58;31.92;;;23.20;;
32864;SDS011;19219;44.500;11.188;2023-04-08T08:18:23;26.05;;;21.08;;
32864;SDS011;19219;44.500;11.188;2023-04-08T08:20:49;29.80;;;22.33;;
32864;SDS011;19219;44.500;11.188;2023-04-08T08:23:15;29.90;;;22.23;;
32864;SDS011;19219;44.500;11.188;2023-04-08T08:25:41;33.42;;;23.73;;
32864;SDS011;19219;44.500;11.188;2023-04-08T08:28:07;33.25;;;24.08;;
32864;SDS011;19219;44.500;11.188;2023-04-08T08:30:32;38.97;;;23.58;;
32864;SDS011;19219;44.500;11.188;2023-04-08T08:32:58;32.22;;;22.63;;
32864;SDS011;19219;44.500;11.188;2023-04-08T08:35:24;29.77;;;22.75;;
32864;SDS011;19219;44.500;11.188;2023-04-08T08:37:50;33.33;;;22.52;;
32864;SDS011;19219;44.500;11.188;2023-04-08T08:40:16;25.92;;;19.85;;
32864;SDS011;19219;44.500;11.188;2023-04-08T08:42:47;28.70;;;19.23;;
32864;SDS011;19219;44.500;11.188;2023-04-08T08:45:18;21.10;;;18.00;;
32864;SDS011;19219;44.500;11.188;2023-04-08T08:47:44;27.35;;;18.67;;
32864;SDS011;19219;44.500;11.188;2023-04-08T08:50:10;22.92;;;17.17;;
32864;SDS011;19219;44.500;11.188;2023-04-08T08:52:36;29.85;;;21.52;;
32864;SDS011;19219;44.500;11.188;2023-04-08T08:55:02;23.33;;;17.02;;
32864;SDS011;19219;44.500;11.188;2023-04-08T08:57:27;24.73;;;18.25;;
32864;SDS011;19219;44.500;11.188;2023-04-08T08:59:53;25.35;;;17.83;;
32864;SDS011;19219;44.500;11.188;2023-04-08T09:02:23;21.85;;;17.55;;
32864;SDS011;19219;44.500;11.188;2023-04-08T09:04:57;19.15;;;16.02;;
32864;SDS011;19219;44.500;11.188;2023-04-08T09:07:27;25.20;;;18.73;;
32864;SDS011;19219;44.500;11.188;2023-04-08T09:09:54;22.02;;;17.58;;
32864;SDS011;19219;44.500;11.188;2023-04-08T09:12:22;26.00;;;17.67;;
32864;SDS011;19219;44.500;11.188;2023-04-08T09:14:49;23.58;;;18.23;;
32864;SDS011;19219;44.500;11.188;2023-04-08T09:17:15;22.77;;;16.48;;
32864;SDS011;19219;44.500;11.188;2023-04-08T09:20:10;18.80;;;15.18;;
32864;SDS011;19219;44.500;11.188;2023-04-08T09:25:32;21.10;;;13.75;;
32864;SDS011;19219;44.500;11.188;2023-04-08T09:27:58;19.75;;;14.73;;
32864;SDS011;19219;44.500;11.188;2023-04-08T09:30:24;19.30;;;14.98;;
32864;SDS011;19219;44.500;11.188;2023-04-08T09:35:27;19.95;;;16.13;;
32864;SDS011;19219;44.500;11.188;2023-04-08T09:37:52;19.38;;;13.93;;
32864;SDS011;19219;44.500;11.188;2023-04-08T09:40:18;34.10;;;25.42;;
32864;SDS011;19219;44.500;11.188;2023-04-08T09:42:45;23.20;;;17.20;;
32864;SDS011;19219;44.500;11.188;2023-04-08T09:45:16;21.60;;;17.40;;
32864;SDS011;19219;44.500;11.188;2023-04-08T09:50:31;28.63;;;20.38;;
32864;SDS011;19219;44.500;11.188;2023-04-08T09:53:08;40.40;;;21.85;;
32864;SDS011;19219;44.500;11.188;2023-04-08T09:55:40;25.10;;;19.42;;
32864;SDS011;19219;44.500;11.188;2023-04-08T09:58:09;27.88;;;19.90;;
32864;SDS011;19219;44.500;11.188;2023-04-08T10:00:41;23.27;;;18.33;;
32864;SDS011;19219;44.500;11.188;2023-04-08T10:05:54;24.25;;;17.05;;
32864;SDS011;19219;44.500;11.188;2023-04-08T10:08:22;22.58;;;16.27;;
32864;SDS011;19219;44.500;11.188;2023-04-08T10:10:50;21.70;;;15.65;;
32864;SDS011;19219;44.500;11.188;2023-04-08T10:13:16;18.38;;;13.82;;
32864;SDS011;19219;44.500;11.188;2023-04-08T10:15:42;18.25;;;13.60;;
32864;SDS011;19219;44.500;11.188;2023-04-08T10:23:08;20.13;;;14.85;;
32864;SDS011;19219;44.500;11.188;2023-04-08T10:28:26;17.77;;;12.85;;
32864;SDS011;19219;44.500;11.188;2023-04-08T10:30:52;15.13;;;12.70;;
32864;SDS011;19219;44.500;11.188;2023-04-08T10:36:12;15.68;;;13.30;;
32864;SDS011;19219;44.500;11.188;2023-04-08T10:38:39;22.35;;;14.00;;
32864;SDS011;19219;44.500;11.188;2023-04-08T10:41:09;21.50;;;14.30;;
32864;SDS011;19219;44.500;11.188;2023-04-08T10:43:37;16.77;;;12.82;;
32864;SDS011;19219;44.500;11.188;2023-04-08T10:46:03;16.40;;;12.65;;
32864;SDS011;19219;44.500;11.188;2023-04-08T10:48:29;16.23;;;12.48;;
32864;SDS011;19219;44.500;11.188;2023-04-08T10:50:58;16.90;;;12.43;;
32864;SDS011;19219;44.500;11.188;2023-04-08T10:53:29;15.30;;;11.68;;
32864;SDS011;19219;44.500;11.188;2023-04-08T10:58:32;15.93;;;12.30;;
32864;SDS011;19219;44.500;11.188;2023-04-08T11:03:34;16.58;;;13.20;;
32864;SDS011;19219;44.500;11.188;2023-04-08T11:06:01;18.08;;;12.57;;
32864;SDS011;19219;44.500;11.188;2023-04-08T11:08:30;16.38;;;11.55;;
32864;SDS011;19219;44.500;11.188;2023-04-08T11:10:57;18.85;;;13.23;;
32864;SDS011;19219;44.500;11.188;2023-04-08T11:13:25;16.63;;;12.18;;
32864;SDS011;19219;44.500;11.188;2023-04-08T11:15:51;16.83;;;13.27;;
32864;SDS011;19219;44.500;11.188;2023-04-08T11:18:17;15.23;;;12.70;;
32864;SDS011;19219;44.500;11.188;2023-04-08T11:20:45;18.27;;;13.50;;
32864;SDS011;19219;44.500;11.188;2023-04-08T11:23:14;17.90;;;13.68;;
32864;SDS011;19219;44.500;11.188;2023-04-08T11:25:43;17.58;;;14.23;;
32864;SDS011;19219;44.500;11.188;2023-04-08T11:28:11;19.58;;;13.18;;
32864;SDS011;19219;44.500;11.188;2023-04-08T11:30:37;18.48;;;13.55;;
32864;SDS011;19219;44.500;11.188;2023-04-08T11:33:04;17.55;;;12.90;;
32864;SDS011;19219;44.500;11.188;2023-04-08T11:35:33;16.77;;;12.90;;
32864;SDS011;19219;44.500;11.188;2023-04-08T11:38:03;19.52;;;14.27;;
32864;SDS011;19219;44.500;11.188;2023-04-08T11:40:29;18.25;;;14.40;;
32864;SDS011;19219;44.500;11.188;2023-04-08T11:42:55;24.15;;;15.55;;
32864;SDS011;19219;44.500;11.188;2023-04-08T11:45:20;20.52;;;14.45;;
32864;SDS011;19219;44.500;11.188;2023-04-08T11:47:47;16.48;;;12.88;;
32864;SDS011;19219;44.500;11.188;2023-04-08T11:50:22;17.77;;;12.20;;
32864;SDS011;19219;44.500;11.188;2023-04-08T11:52:50;15.77;;;11.25;;
32864;SDS011;19219;44.500;11.188;2023-04-08T11:55:26;14.60;;;11.07;;
32864;SDS011;19219;44.500;11.188;2023-04-08T11:57:54;14.93;;;11.13;;
32864;SDS011;19219;44.500;11.188;2023-04-08T12:00:21;16.83;;;11.07;;
32864;SDS011;19219;44.500;11.188;2023-04-08T12:02:48;14.98;;;11.57;;
32864;SDS011;19219;44.500;11.188;2023-04-08T12:05:15;14.50;;;10.90;;
32864;SDS011;19219;44.500;11.188;2023-04-08T12:07:41;15.25;;;11.30;;
32864;SDS011;19219;44.500;11.188;2023-04-08T12:10:08;14.80;;;10.23;;
32864;SDS011;19219;44.500;11.188;2023-04-08T12:12:34;16.92;;;10.73;;
32864;SDS011;19219;44.500;11.188;2023-04-08T12:15:00;14.98;;;12.77;;
32864;SDS011;19219;44.500;11.188;2023-04-08T12:17:26;14.38;;;11.55;;
32864;SDS011;19219;44.500;11.188;2023-04-08T12:19:52;14.45;;;11.10;;
32864;SDS011;19219;44.500;11.188;2023-04-08T12:22:17;16.48;;;10.35;;
32864;SDS011;19219;44.500;11.188;2023-04-08T12:24:43;15.57;;;10.50;;
32864;SDS011;19219;44.500;11.188;2023-04-08T12:27:09;13.52;;;10.27;;
32864;SDS011;19219;44.500;11.188;2023-04-08T12:29:35;13.20;;;10.30;;
32864;SDS011;19219;44.500;11.188;2023-04-08T12:32:00;15.23;;;10.70;;
32864;SDS011;19219;44.500;11.188;2023-04-08T12:34:28;14.43;;;11.40;;
32864;SDS011;19219;44.500;11.188;2023-04-08T12:36:53;14.05;;;10.73;;
32864;SDS011;19219;44.500;11.188;2023-04-08T12:39:20;18.80;;;10.45;;
32864;SDS011;19219;44.500;11.188;2023-04-08T12:41:46;13.88;;;10.43;;
32864;SDS011;19219;44.500;11.188;2023-04-08T12:44:11;14.55;;;10.35;;
32864;SDS011;19219;44.500;11.188;2023-04-08T12:46:37;31.10;;;18.15;;
32864;SDS011;19219;44.500;11.188;2023-04-08T12:49:03;17.92;;;12.80;;
32864;SDS011;19219;44.500;11.188;2023-04-08T12:51:28;12.80;;;8.65;;
32864;SDS011;19219;44.500;11.188;2023-04-08T12:53:55;10.93;;;9.40;;
32864;SDS011;19219;44.500;11.188;2023-04-08T12:56:20;15.95;;;9.77;;
32864;SDS011;19219;44.500;11.188;2023-04-08T12:58:46;13.35;;;8.15;;
32864;SDS011;19219;44.500;11.188;2023-04-08T13:01:12;11.77;;;7.13;;
32864;SDS011;19219;44.500;11.188;2023-04-08T13:03:38;5.90;;;3.58;;
32864;SDS011;19219;44.500;11.188;2023-04-08T13:06:03;3.88;;;3.22;;
32864;SDS011;19219;44.500;11.188;2023-04-08T13:08:29;3.72;;;3.22;;
32864;SDS011;19219;44.500;11.188;2023-04-08T13:10:55;5.32;;;4.28;;
32864;SDS011;19219;44.500;11.188;2023-04-08T13:13:20;7.38;;;4.05;;
32864;SDS011;19219;44.500;11.188;2023-04-08T13:15:46;4.80;;;3.58;;
32864;SDS011;19219;44.500;11.188;2023-04-08T13:18:12;3.63;;;3.20;;
32864;SDS011;19219;44.500;11.188;2023-04-08T13:20:38;6.22;;;3.78;;
32864;SDS011;19219;44.500;11.188;2023-04-08T13:23:04;4.70;;;3.70;;
32864;SDS011;19219;44.500;11.188;2023-04-08T13:25:29;4.32;;;3.88;;
32864;SDS011;19219;44.500;11.188;2023-04-08T13:27:55;4.22;;;3.83;;
32864;SDS011;19219;44.500;11.188;2023-04-08T13:30:21;10.80;;;6.10;;
32864;SDS011;19219;44.500;11.188;2023-04-08T13:32:47;6.13;;;5.15;;
32864;SDS011;19219;44.500;11.188;2023-04-08T13:35:12;6.40;;;4.50;;
32864;SDS011;19219;44.500;11.188;2023-04-08T13:37:38;7.95;;;4.40;;
32864;SDS011;19219;44.500;11.188;2023-04-08T13:40:04;5.68;;;3.90;;
32864;SDS011;19219;44.500;11.188;2023-04-08T13:42:30;10.18;;;4.88;;
32864;SDS011;19219;44.500;11.188;2023-04-08T13:44:56;7.13;;;4.43;;
32864;SDS011;19219;44.500;11.188;2023-04-08T13:47:22;4.80;;;4.35;;
32864;SDS011;19219;44.500;11.188;2023-04-08T13:49:48;7.57;;;5.03;;
32864;SDS011;19219;44.500;11.188;2023-04-08T13:52:13;4.85;;;4.22;;
32864;SDS011;19219;44.500;11.188;2023-04-08T13:54:39;7.47;;;4.40;;
32864;SDS011;19219;44.500;11.188;2023-04-08T13:57:05;8.13;;;4.60;;
32864;SDS011;19219;44.500;11.188;2023-04-08T13:59:32;5.68;;;4.35;;
32864;SDS011;19219;44.500;11.188;2023-04-08T14:01:58;5.53;;;3.60;;
32864;SDS011;19219;44.500;11.188;2023-04-08T14:04:23;5.43;;;4.38;;
32864;SDS011;19219;44.500;11.188;2023-04-08T14:06:49;5.93;;;4.25;;
32864;SDS011;19219;44.500;11.188;2023-04-08T14:09:18;6.15;;;4.82;;
32864;SDS011;19219;44.500;11.188;2023-04-08T14:11:44;6.40;;;4.80;;
32864;SDS011;19219;44.500;11.188;2023-04-08T14:14:10;9.43;;;5.60;;
32864;SDS011;19219;44.500;11.188;2023-04-08T14:16:36;6.65;;;4.90;;
32864;SDS011;19219;44.500;11.188;2023-04-08T14:19:02;5.93;;;4.63;;
32864;SDS011;19219;44.500;11.188;2023-04-08T14:21:29;7.05;;;5.03;;
32864;SDS011;19219;44.500;11.188;2023-04-08T14:23:55;10.05;;;4.72;;
32864;SDS011;19219;44.500;11.188;2023-04-08T14:26:21;6.00;;;4.13;;
32864;SDS011;19219;44.500;11.188;2023-04-08T14:28:47;5.00;;;3.55;;
32864;SDS011;19219;44.500;11.188;2023-04-08T14:31:13;5.20;;;3.60;;
32864;SDS011;19219;44.500;11.188;2023-04-08T14:33:39;4.35;;;3.45;;
32864;SDS011;19219;44.500;11.188;2023-04-08T14:36:06;4.32;;;3.50;;
32864;SDS011;19219;44.500;11.188;2023-04-08T14:38:32;4.50;;;4.10;;
32864;SDS011;19219;44.500;11.188;2023-04-08T14:40:58;6.15;;;4.80;;